sensor_id;sensor_type;location;lat;lon;timestamp;pressure;altitude;pressure_sealevel;temperature;humidity
53940;BME280;39850;43.324;21.916;2023-02-10T00:04:38;1012.0;;;-0.8;59.0
53940;BME280;39850;43.324;21.916;2023-02-10T00:09:15;1012.0;;;-0.8;59.0
53940;BME280;39850;43.324;21.916;2023-02-10T00:13:51;1012.0;;;-0.8;59.0
53940;BME280;39850;43.324;21.916;2023-02-10T00:18:31;1012.0;;;-0.8;60.0
53940;BME280;39850;43.324;21.916;2023-02-10T00:23:08;1012.0;;;-0.8;60.0
53940;BME280;39850;43.324;21.916;2023-02-10T00:27:45;1012.0;;;-0.8;60.0
53940;BME280;39850;43.324;21.916;2023-02-10T00:32:22;1012.0;;;-0.8;60.0
53940;BME280;39850;43.324;21.916;2023-02-10T00:36:58;1012.0;;;-0.8;61.0
53940;BME280;39850;43.324;21.916;2023-02-10T00:41:34;1012.0;;;-0.8;61.0
53940;BME280;39850;43.324;21.916;2023-02-10T00:46:18;1012.0;;;-0.8;61.0
53940;BME280;39850;43.324;21.916;2023-02-10T00:50:55;1012.0;;;-0.8;61.0
53940;BME280;39850;43.324;21.916;2023-02-10T01:37:11;1012.0;;;-1.5;63.0
53940;BME280;39850;43.324;21.916;2023-02-10T01:41:48;1012.0;;;-1.5;63.0
53940;BME280;39850;43.324;21.916;2023-02-10T01:46:30;1012.0;;;-1.2;62.0
53940;BME280;39850;43.324;21.916;2023-02-10T01:51:07;1012.0;;;-1.2;62.0
53940;BME280;39850;43.324;21.916;2023-02-10T01:55:58;1012.0;;;-1.2;62.0
53940;BME280;39850;43.324;21.916;2023-02-10T02:00:38;1012.0;;;-1.2;62.0
53940;BME280;39850;43.324;21.916;2023-02-10T02:05:37;1012.0;;;-0.8;61.0
53940;BME280;39850;43.324;21.916;2023-02-10T02:10:16;1012.0;;;-0.8;61.0
53940;BME280;39850;43.324;21.916;2023-02-10T02:49:08;1012.0;;;-1.7;63.0
53940;BME280;39850;43.324;21.916;2023-02-10T02:54:25;1012.0;;;-1.7;63.0
53940;BME280;39850;43.324;21.916;2023-02-10T02:59:34;1012.0;;;-1.7;63.0
53940;BME280;39850;43.324;21.916;2023-02-10T03:04:18;1012.0;;;-1.7;63.0
53940;BME280;39850;43.324;21.916;2023-02-10T03:08:55;1012.0;;;-1.7;63.0
53940;BME280;39850;43.324;21.916;2023-02-10T03:13:32;1012.0;;;-1.7;63.0
53940;BME280;39850;43.324;21.916;2023-02-10T04:08:57;1012.0;;;-2.8;65.0
53940;BME280;39850;43.324;21.916;2023-02-10T04:13:34;1012.0;;;-2.8;65.0
53940;BME280;39850;43.324;21.916;2023-02-10T04:18:11;1012.0;;;-2.8;65.0
53940;BME280;39850;43.324;21.916;2023-02-10T04:22:48;1012.0;;;-2.8;65.0
53940;BME280;39850;43.324;21.916;2023-02-10T04:27:25;1012.0;;;-2.8;65.0
53940;BME280;39850;43.324;21.916;2023-02-10T04:32:02;1012.0;;;-2.8;65.0
53940;BME280;39850;43.324;21.916;2023-02-10T04:36:39;1012.0;;;-2.8;65.0
53940;BME280;39850;43.324;21.916;2023-02-10T04:41:16;1012.0;;;-2.8;65.0
53940;BME280;39850;43.324;21.916;2023-02-10T04:45:53;1012.0;;;-2.8;65.0
53940;BME280;39850;43.324;21.916;2023-02-10T04:50:31;1012.0;;;-2.8;65.0
53940;BME280;39850;43.324;21.916;2023-02-10T05:27:25;1012.0;;;-2.6;65.0
53940;BME280;39850;43.324;21.916;2023-02-10T05:32:02;1012.0;;;-2.6;65.0
53940;BME280;39850;43.324;21.916;2023-02-10T05:36:39;1012.0;;;-2.6;65.0
53940;BME280;39850;43.324;21.916;2023-02-10T05:41:15;1012.0;;;-2.6;65.0
53940;BME280;39850;43.324;21.916;2023-02-10T05:45:52;1012.0;;;-2.6;65.0
53940;BME280;39850;43.324;21.916;2023-02-10T05:50:28;1012.0;;;-2.6;65.0
53940;BME280;39850;43.324;21.916;2023-02-10T05:55:07;1012.0;;;-2.6;65.0
53940;BME280;39850;43.324;21.916;2023-02-10T05:59:44;1012.0;;;-2.6;65.0
53940;BME280;39850;43.324;21.916;2023-02-10T06:04:20;1012.0;;;-2.6;65.0
53940;BME280;39850;43.324;21.916;2023-02-10T06:08:57;1013.0;;;-2.6;65.0
53940;BME280;39850;43.324;21.916;2023-02-10T06:13:37;1013.0;;;-2.6;65.0
53940;BME280;39850;43.324;21.916;2023-02-10T06:45:56;1013.0;;;-2.6;63.0
53940;BME280;39850;43.324;21.916;2023-02-10T06:50:33;1013.0;;;-2.6;63.0
53940;BME280;39850;43.324;21.916;2023-02-10T06:55:11;1013.0;;;-2.6;63.0
53940;BME280;39850;43.324;21.916;2023-02-10T06:59:48;1013.0;;;-2.7;63.0
53940;BME280;39850;43.324;21.916;2023-02-10T07:04:24;1013.0;;;-2.7;63.0
53940;BME280;39850;43.324;21.916;2023-02-10T07:09:02;1013.0;;;-2.8;63.0
53940;BME280;39850;43.324;21.916;2023-02-10T07:13:39;1013.0;;;-2.8;63.0
53940;BME280;39850;43.324;21.916;2023-02-10T07:18:16;1013.0;;;-2.8;63.0
53940;BME280;39850;43.324;21.916;2023-02-10T07:22:53;1013.0;;;-2.8;63.0
53940;BME280;39850;43.324;21.916;2023-02-10T07:27:30;1013.0;;;-2.8;63.0
53940;BME280;39850;43.324;21.916;2023-02-10T07:32:06;1013.0;;;-2.8;63.0
53940;BME280;39850;43.324;21.916;2023-02-10T08:08:57;1013.0;;;-0.6;58.0
53940;BME280;39850;43.324;21.916;2023-02-10T08:13:34;1013.0;;;-0.6;58.0
53940;BME280;39850;43.324;21.916;2023-02-10T08:18:10;1013.0;;;-0.6;57.0
53940;BME280;39850;43.324;21.916;2023-02-10T08:22:47;1013.0;;;-0.6;57.0
53940;BME280;39850;43.324;21.916;2023-02-10T08:27:23;1013.0;;;-0.0;56.0
53940;BME280;39850;43.324;21.916;2023-02-10T08:32:00;1013.0;;;-0.0;56.0
53940;BME280;39850;43.324;21.916;2023-02-10T08:36:37;1013.0;;;0.5;55.0
53940;BME280;39850;43.324;21.916;2023-02-10T08:41:16;1013.0;;;0.5;55.0
53940;BME280;39850;43.324;21.916;2023-02-10T08:45:59;1013.0;;;0.5;54.0
53940;BME280;39850;43.324;21.916;2023-02-10T08:50:37;1013.0;;;0.5;54.0
53940;BME280;39850;43.324;21.916;2023-02-10T08:55:15;1013.0;;;0.5;54.0
53940;BME280;39850;43.324;21.916;2023-02-10T09:27:35;1013.0;;;2.6;49.0
53940;BME280;39850;43.324;21.916;2023-02-10T09:32:13;1013.0;;;2.6;49.0
53940;BME280;39850;43.324;21.916;2023-02-10T09:36:49;1013.0;;;3.0;48.0
53940;BME280;39850;43.324;21.916;2023-02-10T09:42:12;1013.0;;;3.0;48.0
53940;BME280;39850;43.324;21.916;2023-02-10T09:47:47;1013.0;;;3.4;47.0
53940;BME280;39850;43.324;21.916;2023-02-10T09:53:04;1013.0;;;3.4;47.0
53940;BME280;39850;43.324;21.916;2023-02-10T09:58:09;1013.0;;;3.5;47.0
53940;BME280;39850;43.324;21.916;2023-02-10T10:03:04;1013.0;;;3.5;47.0
53940;BME280;39850;43.324;21.916;2023-02-10T10:07:56;1013.0;;;3.6;47.0
53940;BME280;39850;43.324;21.916;2023-02-10T10:12:37;1013.0;;;3.6;47.0
53940;BME280;39850;43.324;21.916;2023-02-10T10:48:32;1012.0;;;4.4;43.0
53940;BME280;39850;43.324;21.916;2023-02-10T10:53:41;1012.0;;;4.4;43.0
53940;BME280;39850;43.324;21.916;2023-02-10T10:58:42;1012.0;;;4.7;43.0
53940;BME280;39850;43.324;21.916;2023-02-10T11:03:20;1012.0;;;4.7;43.0
53940;BME280;39850;43.324;21.916;2023-02-10T11:08:01;1012.0;;;4.7;43.0
53940;BME280;39850;43.324;21.916;2023-02-10T11:12:47;1012.0;;;4.7;43.0
53940;BME280;39850;43.324;21.916;2023-02-10T11:17:39;1012.0;;;5.0;43.0
53940;BME280;39850;43.324;21.916;2023-02-10T11:22:22;1012.0;;;5.0;43.0
53940;BME280;39850;43.324;21.916;2023-02-10T12:17:25;1011.0;;;5.5;42.0
53940;BME280;39850;43.324;21.916;2023-02-10T12:30:23;1011.0;;;5.5;42.0
53940;BME280;39850;43.324;21.916;2023-02-10T12:36:21;1011.0;;;5.5;42.0
53940;BME280;39850;43.324;21.916;2023-02-10T12:41:54;1011.0;;;5.5;42.0
53940;BME280;39850;43.324;21.916;2023-02-10T12:47:26;1011.0;;;5.5;42.0
53940;BME280;39850;43.324;21.916;2023-02-10T12:52:25;1011.0;;;5.5;42.0
53940;BME280;39850;43.324;21.916;2023-02-10T13:37:52;1011.0;;;3.5;46.0
53940;BME280;39850;43.324;21.916;2023-02-10T13:42:49;1011.0;;;3.5;46.0
53940;BME280;39850;43.324;21.916;2023-02-10T13:47:51;1011.0;;;3.5;46.0
53940;BME280;39850;43.324;21.916;2023-02-10T13:52:36;1011.0;;;3.5;46.0
53940;BME280;39850;43.324;21.916;2023-02-10T13:57:35;1011.0;;;3.5;46.0
53940;BME280;39850;43.324;21.916;2023-02-10T14:02:23;1011.0;;;3.5;46.0
53940;BME280;39850;43.324;21.916;2023-02-10T14:06:59;1011.0;;;3.5;47.0
53940;BME280;39850;43.324;21.916;2023-02-10T14:11:46;1011.0;;;3.5;47.0
53940;BME280;39850;43.324;21.916;2023-02-10T14:16:42;1011.0;;;3.5;47.0
53940;BME280;39850;43.324;21.916;2023-02-10T14:49:58;1011.0;;;2.7;48.0
53940;BME280;39850;43.324;21.916;2023-02-10T14:54:39;1011.0;;;2.7;48.0
53940;BME280;39850;43.324;21.916;2023-02-10T14:59:30;1011.0;;;2.2;48.0
53940;BME280;39850;43.324;21.916;2023-02-10T15:04:06;1011.0;;;2.2;48.0
53940;BME280;39850;43.324;21.916;2023-02-10T15:09:06;1011.0;;;1.7;48.0
53940;BME280;39850;43.324;21.916;2023-02-10T15:13:49;1011.0;;;1.7;48.0
53940;BME280;39850;43.324;21.916;2023-02-10T15:18:43;1011.0;;;1.6;48.0
53940;BME280;39850;43.324;21.916;2023-02-10T15:23:24;1011.0;;;1.6;48.0
53940;BME280;39850;43.324;21.916;2023-02-10T15:28:29;1011.0;;;1.6;49.0
53940;BME280;39850;43.324;21.916;2023-02-10T15:33:25;1011.0;;;1.6;49.0
53940;BME280;39850;43.324;21.916;2023-02-10T16:20:33;1011.0;;;1.8;50.0
53940;BME280;39850;43.324;21.916;2023-02-10T16:25:10;1011.0;;;1.8;50.0
53940;BME280;39850;43.324;21.916;2023-02-10T16:29:47;1011.0;;;1.4;49.0
53940;BME280;39850;43.324;21.916;2023-02-10T16:34:24;1011.0;;;1.4;49.0
53940;BME280;39850;43.324;21.916;2023-02-10T16:39:01;1011.0;;;1.4;49.0
53940;BME280;39850;43.324;21.916;2023-02-10T16:43:37;1011.0;;;1.4;49.0
53940;BME280;39850;43.324;21.916;2023-02-10T16:48:14;1011.0;;;0.9;48.0
53940;BME280;39850;43.324;21.916;2023-02-10T16:52:51;1011.0;;;0.9;48.0
53940;BME280;39850;43.324;21.916;2023-02-10T17:29:53;1012.0;;;1.7;50.0
53940;BME280;39850;43.324;21.916;2023-02-10T17:34:30;1012.0;;;1.7;50.0
53940;BME280;39850;43.324;21.916;2023-02-10T17:39:19;1012.0;;;1.6;50.0
53940;BME280;39850;43.324;21.916;2023-02-10T17:43:59;1012.0;;;1.6;50.0
53940;BME280;39850;43.324;21.916;2023-02-10T17:48:36;1012.0;;;1.7;50.0
53940;BME280;39850;43.324;21.916;2023-02-10T17:53:13;1012.0;;;1.7;50.0
53940;BME280;39850;43.324;21.916;2023-02-10T17:57:50;1012.0;;;1.8;50.0
53940;BME280;39850;43.324;21.916;2023-02-10T18:02:26;1012.0;;;1.8;50.0
53940;BME280;39850;43.324;21.916;2023-02-10T18:07:03;1012.0;;;1.8;50.0
53940;BME280;39850;43.324;21.916;2023-02-10T18:11:40;1012.0;;;1.9;50.0
53940;BME280;39850;43.324;21.916;2023-02-10T18:16:17;1012.0;;;1.9;50.0
53940;BME280;39850;43.324;21.916;2023-02-10T18:57:55;1013.0;;;2.5;58.0
53940;BME280;39850;43.324;21.916;2023-02-10T19:02:32;1013.0;;;2.5;58.0
53940;BME280;39850;43.324;21.916;2023-02-10T19:07:09;1013.0;;;2.5;58.0
53940;BME280;39850;43.324;21.916;2023-02-10T19:11:45;1013.0;;;3.1;54.0
53940;BME280;39850;43.324;21.916;2023-02-10T19:16:22;1013.0;;;3.1;54.0
53940;BME280;39850;43.324;21.916;2023-02-10T19:20:59;1013.0;;;3.1;54.0
53940;BME280;39850;43.324;21.916;2023-02-10T19:25:36;1013.0;;;3.1;54.0
53940;BME280;39850;43.324;21.916;2023-02-10T19:30:13;1013.0;;;3.7;50.0
53940;BME280;39850;43.324;21.916;2023-02-10T19:34:50;1013.0;;;3.7;50.0
53940;BME280;39850;43.324;21.916;2023-02-10T20:11:46;1013.0;;;2.5;49.0
53940;BME280;39850;43.324;21.916;2023-02-10T20:16:24;1013.0;;;2.5;49.0
53940;BME280;39850;43.324;21.916;2023-02-10T20:21:05;1013.0;;;2.5;49.0
53940;BME280;39850;43.324;21.916;2023-02-10T20:25:42;1013.0;;;2.5;49.0
53940;BME280;39850;43.324;21.916;2023-02-10T20:30:20;1013.0;;;2.5;49.0
53940;BME280;39850;43.324;21.916;2023-02-10T20:34:56;1013.0;;;2.5;49.0
53940;BME280;39850;43.324;21.916;2023-02-10T20:39:33;1013.0;;;2.6;49.0
53940;BME280;39850;43.324;21.916;2023-02-10T20:44:10;1013.0;;;2.6;49.0
53940;BME280;39850;43.324;21.916;2023-02-10T20:48:48;1013.0;;;2.7;50.0
53940;BME280;39850;43.324;21.916;2023-02-10T20:53:26;1013.0;;;2.7;50.0
53940;BME280;39850;43.324;21.916;2023-02-10T20:58:03;1013.0;;;2.7;50.0
53940;BME280;39850;43.324;21.916;2023-02-10T21:30:32;1013.0;;;2.2;50.0
53940;BME280;39850;43.324;21.916;2023-02-10T21:35:09;1013.0;;;2.2;50.0
53940;BME280;39850;43.324;21.916;2023-02-10T21:39:45;1013.0;;;2.0;51.0
53940;BME280;39850;43.324;21.916;2023-02-10T21:44:31;1013.0;;;2.0;51.0
53940;BME280;39850;43.324;21.916;2023-02-10T21:49:07;1013.0;;;1.7;52.0
53940;BME280;39850;43.324;21.916;2023-02-10T21:53:44;1013.0;;;1.7;52.0
53940;BME280;39850;43.324;21.916;2023-02-10T21:58:21;1013.0;;;1.6;52.0
53940;BME280;39850;43.324;21.916;2023-02-10T22:02:57;1013.0;;;1.6;52.0
53940;BME280;39850;43.324;21.916;2023-02-10T22:07:36;1013.0;;;1.6;52.0
53940;BME280;39850;43.324;21.916;2023-02-10T22:12:12;1013.0;;;1.6;52.0
53940;BME280;39850;43.324;21.916;2023-02-10T22:16:49;1013.0;;;1.6;52.0
53940;BME280;39850;43.324;21.916;2023-02-10T23:03:00;1013.0;;;-1.0;60.0
53940;BME280;39850;43.324;21.916;2023-02-10T23:07:37;1013.0;;;-1.0;60.0
53940;BME280;39850;43.324;21.916;2023-02-10T23:12:13;1013.0;;;-1.0;60.0
53940;BME280;39850;43.324;21.916;2023-02-10T23:16:55;1013.0;;;-1.0;60.0
53940;BME280;39850;43.324;21.916;2023-02-10T23:21:32;1013.0;;;-1.0;61.0
53940;BME280;39850;43.324;21.916;2023-02-10T23:26:10;1013.0;;;-1.0;61.0
53940;BME280;39850;43.324;21.916;2023-02-10T23:30:48;1013.0;;;-0.9;61.0
53940;BME280;39850;43.324;21.916;2023-02-10T23:35:25;1013.0;;;-0.9;61.0
